Accueil
METAR-TAF:

METAR-TAF

Aéroports :

Frontone, Italie

latitude: 43-31N, longitude: 012-44E, altitude: 570 m

Observation

Le bulletin a été fait il y a 1 heure et 25 minutes, à 23:55 UTC
Vent 10 kt de sud avec des rafales jusqu'à 20 kt
Température 6°C
Humidité 65%
Pression 1018 hPa
Visibilité 10 km ou plus
Nuages épars à une hauteur de 2500 ft

METAR: LIVF 162355Z 19010G20KT 9999 SCT025 06/00 Q1018 RMK SCT MON S W CIME INC NC VAL NIL VIS MIN 9999

Heure: 02:20 (01:20 UTC)


TAF: absent

Observations et prévisions météorologiques de plus de 4000 aéroports (messages METAR et TAF).

Les stations disponibles sont représentées par des disques jaunes et rouges sur la carte.

Passer la souris dessus pour voir le nom de la station.

Cliquer dessus pour voir les observations et prévisions météorologiques.

Pour changer de carte: cliquez sur les boutons verts avec une croix noire pour zoomer, sur le bouton vert avec un tiret pour effectuer un zoom arrière, ou sur les flèches vertes pour les cartes adjacentes.


METAR-TAF: